Hovedside
METAR-TAF:

METAR-TAF

Lufthavner :

Uleåborg lufthavn

Uleåborg, Finland

breddegrad: 64-56N, lengdegrad: 025-22E, høyde over havet: 12 m

Gjeldene værobservasjon

Denne rapporten ble laget for 15 minutter siden, klokken 14:20 UTC
Vind 10 kt fra Sør-sørøst, skiftende mellom Øst-sørøst og Sør
Temperatur 31°C
Luftfuktighet 22%
Trykk 1017 hPa
Sikt 10 km eller mer
ingen skyer under 1500 m og ingen bygeskyer

METAR: EFOU 181420Z AUTO 15010KT 110V180 CAVOK 31/07 Q1017

Tid: 17:35 (14:35 UTC)

Varsel

Denne rapporten ble laget for 2 timer og 58 minutter siden, klokken 11:37 UTC
Varsel gyldig fra 18. klokken 12 UTC til 19. klokken 12 UTC
Vind 9 kt fra Øst-sørøst
Sikt 10 km eller mer
ingen skyer under 1500 m og ingen bygeskyer

TAF: EFOU 181137Z 1812/1912 12009KT CAVOK

Værobservasjoner og værvarsel for over 4000 flyplasser (METAR- og TAF-rapporter).

Tilgjengelige stasjoner er representert av de røde og gule prikkene på kartet.

Hold musepekeren over prikken for å se navnet på stasjonen.

Klikk så for å se værobservasjoner og -varsler.

For å forandre kartet kan du klikke på den grønne knappen med svart kryss for å zoome inn, på den grønne knappen med strek for å zoome ut, eller på de grønne pilene for å se tilstøtende kart.


METAR-TAF: